Weather at Næstved Airfield

Public forecast

Using degrees Celsius for public forecast. Weather courtesy of forecast.io.

Closest aviation weather report (METAR) to Næstved Airfield

Closest report is Ringsted Airfield, 13.3 nm (24.6 km) NNE.

2024/05/21 01:20 (retrieved 12 minutes ago)

EKRS 210120Z AUTO 09004KT 020V130 //// // NCD 13/13 Q1017

Closest aviation forecast (TAF) to Næstved Airfield

Closest forecast is Dortmund Airport, 266.0 nm (492.6 km) SW.

2024/05/20 21:39 (retrieved 4 hours ago)

TAF EDLW 202130Z 2021/2118 CNL